sensor_id;sensor_type;location;lat;lon;timestamp;P1;durP1;ratioP1;P2;durP2;ratioP2
63688;SDS011;54895;40.928;14.480;2022-12-29T00:02:23;36.28;;;25.05;;
63688;SDS011;54895;40.928;14.480;2022-12-29T00:04:51;40.83;;;27.70;;
63688;SDS011;54895;40.928;14.480;2022-12-29T00:07:17;39.88;;;26.20;;
63688;SDS011;54895;40.928;14.480;2022-12-29T00:09:43;42.55;;;27.50;;
63688;SDS011;54895;40.928;14.480;2022-12-29T00:12:10;37.85;;;27.27;;
63688;SDS011;54895;40.928;14.480;2022-12-29T00:14:35;43.55;;;28.80;;
63688;SDS011;54895;40.928;14.480;2022-12-29T00:17:20;41.45;;;27.65;;
63688;SDS011;54895;40.928;14.480;2022-12-29T00:19:46;41.08;;;27.17;;
63688;SDS011;54895;40.928;14.480;2022-12-29T00:22:31;39.80;;;26.80;;
63688;SDS011;54895;40.928;14.480;2022-12-29T00:25:15;40.53;;;28.42;;
63688;SDS011;54895;40.928;14.480;2022-12-29T00:28:00;44.15;;;28.80;;
63688;SDS011;54895;40.928;14.480;2022-12-29T00:30:45;43.92;;;29.83;;
63688;SDS011;54895;40.928;14.480;2022-12-29T00:33:30;45.08;;;31.42;;
63688;SDS011;54895;40.928;14.480;2022-12-29T00:38:59;45.50;;;30.20;;
63688;SDS011;54895;40.928;14.480;2022-12-29T00:41:45;44.50;;;29.55;;
63688;SDS011;54895;40.928;14.480;2022-12-29T00:44:29;44.20;;;29.65;;
63688;SDS011;54895;40.928;14.480;2022-12-29T00:46:55;44.05;;;28.75;;
63688;SDS011;54895;40.928;14.480;2022-12-29T00:49:21;43.13;;;28.67;;
63688;SDS011;54895;40.928;14.480;2022-12-29T00:52:01;42.00;;;29.13;;
63688;SDS011;54895;40.928;14.480;2022-12-29T00:54:28;42.53;;;29.60;;
63688;SDS011;54895;40.928;14.480;2022-12-29T00:56:55;41.92;;;28.08;;
63688;SDS011;54895;40.928;14.480;2022-12-29T00:59:21;47.08;;;30.52;;
63688;SDS011;54895;40.928;14.480;2022-12-29T01:01:47;44.03;;;28.45;;
63688;SDS011;54895;40.928;14.480;2022-12-29T01:04:13;46.30;;;29.88;;
63688;SDS011;54895;40.928;14.480;2022-12-29T01:06:40;47.67;;;32.88;;
63688;SDS011;54895;40.928;14.480;2022-12-29T01:09:07;48.17;;;32.40;;
63688;SDS011;54895;40.928;14.480;2022-12-29T01:11:52;46.80;;;30.83;;
63688;SDS011;54895;40.928;14.480;2022-12-29T01:14:18;45.67;;;29.08;;
63688;SDS011;54895;40.928;14.480;2022-12-29T01:16:45;45.17;;;30.33;;
63688;SDS011;54895;40.928;14.480;2022-12-29T01:19:12;44.38;;;30.00;;
63688;SDS011;54895;40.928;14.480;2022-12-29T01:21:38;39.13;;;27.40;;
63688;SDS011;54895;40.928;14.480;2022-12-29T01:24:04;41.25;;;27.52;;
63688;SDS011;54895;40.928;14.480;2022-12-29T01:26:30;39.85;;;26.98;;
63688;SDS011;54895;40.928;14.480;2022-12-29T01:28:56;44.30;;;29.08;;
63688;SDS011;54895;40.928;14.480;2022-12-29T01:31:22;47.17;;;31.08;;
63688;SDS011;54895;40.928;14.480;2022-12-29T01:33:48;45.63;;;30.27;;
63688;SDS011;54895;40.928;14.480;2022-12-29T01:36:15;36.88;;;25.38;;
63688;SDS011;54895;40.928;14.480;2022-12-29T01:38:43;40.05;;;25.58;;
63688;SDS011;54895;40.928;14.480;2022-12-29T01:41:10;35.67;;;24.80;;
63688;SDS011;54895;40.928;14.480;2022-12-29T01:48:55;37.70;;;25.65;;
63688;SDS011;54895;40.928;14.480;2022-12-29T01:51:23;30.83;;;22.27;;
63688;SDS011;54895;40.928;14.480;2022-12-29T01:53:50;31.00;;;21.85;;
63688;SDS011;54895;40.928;14.480;2022-12-29T01:56:17;33.42;;;23.60;;
63688;SDS011;54895;40.928;14.480;2022-12-29T01:58:46;32.33;;;21.08;;
63688;SDS011;54895;40.928;14.480;2022-12-29T02:01:12;31.83;;;22.48;;
63688;SDS011;54895;40.928;14.480;2022-12-29T02:03:39;35.85;;;24.05;;
63688;SDS011;54895;40.928;14.480;2022-12-29T02:06:10;38.97;;;25.73;;
63688;SDS011;54895;40.928;14.480;2022-12-29T02:08:38;42.35;;;26.02;;
63688;SDS011;54895;40.928;14.480;2022-12-29T02:11:04;37.22;;;24.42;;
63688;SDS011;54895;40.928;14.480;2022-12-29T02:13:33;43.47;;;28.77;;
63688;SDS011;54895;40.928;14.480;2022-12-29T02:16:09;43.97;;;28.50;;
63688;SDS011;54895;40.928;14.480;2022-12-29T02:21:17;43.22;;;28.35;;
63688;SDS011;54895;40.928;14.480;2022-12-29T02:26:27;39.28;;;27.92;;
63688;SDS011;54895;40.928;14.480;2022-12-29T02:42:20;39.35;;;26.15;;
63688;SDS011;54895;40.928;14.480;2022-12-29T02:44:59;41.08;;;26.50;;
63688;SDS011;54895;40.928;14.480;2022-12-29T02:47:39;37.70;;;26.40;;
63688;SDS011;54895;40.928;14.480;2022-12-29T02:52:38;43.00;;;28.90;;
63688;SDS011;54895;40.928;14.480;2022-12-29T02:55:06;41.10;;;26.92;;
63688;SDS011;54895;40.928;14.480;2022-12-29T02:57:33;37.40;;;26.02;;
63688;SDS011;54895;40.928;14.480;2022-12-29T03:10:30;43.42;;;28.98;;
63688;SDS011;54895;40.928;14.480;2022-12-29T03:13:03;37.60;;;25.92;;
63688;SDS011;54895;40.928;14.480;2022-12-29T03:19:04;32.28;;;21.88;;
63688;SDS011;54895;40.928;14.480;2022-12-29T03:21:34;33.63;;;21.67;;
63688;SDS011;54895;40.928;14.480;2022-12-29T03:24:20;34.65;;;23.08;;
63688;SDS011;54895;40.928;14.480;2022-12-29T03:26:48;33.35;;;19.02;;
63688;SDS011;54895;40.928;14.480;2022-12-29T03:29:18;30.27;;;18.13;;
63688;SDS011;54895;40.928;14.480;2022-12-29T03:31:48;27.33;;;18.70;;
63688;SDS011;54895;40.928;14.480;2022-12-29T03:34:14;30.52;;;18.92;;
63688;SDS011;54895;40.928;14.480;2022-12-29T03:36:50;26.70;;;17.92;;
63688;SDS011;54895;40.928;14.480;2022-12-29T03:39:17;23.70;;;15.07;;
63688;SDS011;54895;40.928;14.480;2022-12-29T03:41:45;24.98;;;14.70;;
63688;SDS011;54895;40.928;14.480;2022-12-29T03:44:12;15.98;;;11.60;;
63688;SDS011;54895;40.928;14.480;2022-12-29T03:46:39;20.70;;;11.40;;
63688;SDS011;54895;40.928;14.480;2022-12-29T03:49:05;13.15;;;9.60;;
63688;SDS011;54895;40.928;14.480;2022-12-29T03:51:31;17.27;;;9.85;;
63688;SDS011;54895;40.928;14.480;2022-12-29T03:53:57;14.38;;;9.38;;
63688;SDS011;54895;40.928;14.480;2022-12-29T03:56:24;12.32;;;8.95;;
63688;SDS011;54895;40.928;14.480;2022-12-29T03:58:51;12.73;;;9.00;;
63688;SDS011;54895;40.928;14.480;2022-12-29T04:01:23;12.50;;;8.77;;
63688;SDS011;54895;40.928;14.480;2022-12-29T04:03:49;15.55;;;9.75;;
63688;SDS011;54895;40.928;14.480;2022-12-29T04:06:16;17.00;;;9.70;;
63688;SDS011;54895;40.928;14.480;2022-12-29T04:08:49;16.98;;;9.98;;
63688;SDS011;54895;40.928;14.480;2022-12-29T04:11:15;17.10;;;11.48;;
63688;SDS011;54895;40.928;14.480;2022-12-29T04:13:42;15.38;;;10.95;;
63688;SDS011;54895;40.928;14.480;2022-12-29T04:16:10;17.17;;;10.77;;
63688;SDS011;54895;40.928;14.480;2022-12-29T04:18:36;18.35;;;10.65;;
63688;SDS011;54895;40.928;14.480;2022-12-29T04:21:02;16.38;;;10.40;;
63688;SDS011;54895;40.928;14.480;2022-12-29T04:23:32;17.30;;;11.05;;
63688;SDS011;54895;40.928;14.480;2022-12-29T04:25:59;18.77;;;10.50;;
63688;SDS011;54895;40.928;14.480;2022-12-29T04:28:28;17.85;;;13.18;;
63688;SDS011;54895;40.928;14.480;2022-12-29T04:30:56;23.52;;;14.02;;
63688;SDS011;54895;40.928;14.480;2022-12-29T04:33:31;24.75;;;15.27;;
63688;SDS011;54895;40.928;14.480;2022-12-29T04:35:57;21.05;;;14.88;;
63688;SDS011;54895;40.928;14.480;2022-12-29T04:38:24;24.10;;;15.30;;
63688;SDS011;54895;40.928;14.480;2022-12-29T04:40:50;23.00;;;14.57;;
63688;SDS011;54895;40.928;14.480;2022-12-29T04:43:18;18.23;;;12.68;;
63688;SDS011;54895;40.928;14.480;2022-12-29T04:46:19;21.00;;;13.48;;
63688;SDS011;54895;40.928;14.480;2022-12-29T04:49:08;21.48;;;12.98;;
63688;SDS011;54895;40.928;14.480;2022-12-29T04:51:55;21.90;;;13.73;;
63688;SDS011;54895;40.928;14.480;2022-12-29T04:54:21;25.40;;;16.88;;
63688;SDS011;54895;40.928;14.480;2022-12-29T04:56:54;26.00;;;15.60;;
63688;SDS011;54895;40.928;14.480;2022-12-29T04:59:20;21.65;;;14.95;;
63688;SDS011;54895;40.928;14.480;2022-12-29T05:01:49;24.25;;;14.23;;
63688;SDS011;54895;40.928;14.480;2022-12-29T05:04:15;22.42;;;14.57;;
63688;SDS011;54895;40.928;14.480;2022-12-29T05:06:43;27.13;;;14.55;;
63688;SDS011;54895;40.928;14.480;2022-12-29T05:09:09;22.60;;;13.68;;
63688;SDS011;54895;40.928;14.480;2022-12-29T05:11:35;20.65;;;13.07;;
63688;SDS011;54895;40.928;14.480;2022-12-29T05:14:02;19.33;;;12.80;;
63688;SDS011;54895;40.928;14.480;2022-12-29T05:16:30;18.27;;;10.40;;
63688;SDS011;54895;40.928;14.480;2022-12-29T05:18:57;18.85;;;10.48;;
63688;SDS011;54895;40.928;14.480;2022-12-29T05:21:23;16.42;;;9.70;;
63688;SDS011;54895;40.928;14.480;2022-12-29T05:23:49;18.60;;;9.63;;
63688;SDS011;54895;40.928;14.480;2022-12-29T05:26:15;14.82;;;9.27;;
63688;SDS011;54895;40.928;14.480;2022-12-29T05:28:55;15.38;;;8.50;;
63688;SDS011;54895;40.928;14.480;2022-12-29T05:31:22;14.65;;;7.85;;
63688;SDS011;54895;40.928;14.480;2022-12-29T05:36:39;15.00;;;8.27;;
63688;SDS011;54895;40.928;14.480;2022-12-29T05:39:09;16.55;;;8.45;;
63688;SDS011;54895;40.928;14.480;2022-12-29T05:41:36;13.23;;;8.63;;
63688;SDS011;54895;40.928;14.480;2022-12-29T05:44:22;17.40;;;9.32;;
63688;SDS011;54895;40.928;14.480;2022-12-29T05:47:07;15.45;;;9.18;;
63688;SDS011;54895;40.928;14.480;2022-12-29T05:49:49;14.95;;;9.18;;
63688;SDS011;54895;40.928;14.480;2022-12-29T05:52:27;15.25;;;8.45;;
63688;SDS011;54895;40.928;14.480;2022-12-29T05:54:54;15.43;;;8.60;;
63688;SDS011;54895;40.928;14.480;2022-12-29T05:57:22;15.18;;;8.73;;
63688;SDS011;54895;40.928;14.480;2022-12-29T05:59:57;15.18;;;9.07;;
63688;SDS011;54895;40.928;14.480;2022-12-29T06:02:24;15.20;;;9.63;;
63688;SDS011;54895;40.928;14.480;2022-12-29T06:04:50;19.52;;;9.77;;
63688;SDS011;54895;40.928;14.480;2022-12-29T06:07:17;14.45;;;8.57;;
63688;SDS011;54895;40.928;14.480;2022-12-29T06:09:46;15.32;;;8.95;;
63688;SDS011;54895;40.928;14.480;2022-12-29T06:12:13;17.40;;;9.63;;
63688;SDS011;54895;40.928;14.480;2022-12-29T06:14:42;19.50;;;9.45;;
63688;SDS011;54895;40.928;14.480;2022-12-29T06:17:08;18.30;;;10.38;;
63688;SDS011;54895;40.928;14.480;2022-12-29T06:19:36;12.95;;;8.27;;
63688;SDS011;54895;40.928;14.480;2022-12-29T06:22:03;14.55;;;9.00;;
63688;SDS011;54895;40.928;14.480;2022-12-29T06:24:34;18.33;;;9.23;;
63688;SDS011;54895;40.928;14.480;2022-12-29T06:27:00;13.43;;;9.15;;
63688;SDS011;54895;40.928;14.480;2022-12-29T06:29:26;19.17;;;8.35;;
63688;SDS011;54895;40.928;14.480;2022-12-29T06:31:55;14.95;;;9.07;;
63688;SDS011;54895;40.928;14.480;2022-12-29T06:37:07;21.38;;;9.27;;
63688;SDS011;54895;40.928;14.480;2022-12-29T06:39:34;15.57;;;9.45;;
63688;SDS011;54895;40.928;14.480;2022-12-29T06:42:05;17.50;;;9.20;;
63688;SDS011;54895;40.928;14.480;2022-12-29T06:44:45;17.17;;;8.90;;
63688;SDS011;54895;40.928;14.480;2022-12-29T06:47:11;20.42;;;9.40;;
63688;SDS011;54895;40.928;14.480;2022-12-29T06:49:38;20.25;;;9.10;;
63688;SDS011;54895;40.928;14.480;2022-12-29T06:52:04;26.83;;;13.15;;
63688;SDS011;54895;40.928;14.480;2022-12-29T06:54:30;21.77;;;13.23;;
63688;SDS011;54895;40.928;14.480;2022-12-29T06:56:57;25.50;;;12.85;;
63688;SDS011;54895;40.928;14.480;2022-12-29T06:59:23;24.35;;;14.30;;
63688;SDS011;54895;40.928;14.480;2022-12-29T07:01:50;24.10;;;12.77;;
63688;SDS011;54895;40.928;14.480;2022-12-29T07:04:16;19.63;;;12.45;;
63688;SDS011;54895;40.928;14.480;2022-12-29T07:06:42;20.20;;;12.30;;
63688;SDS011;54895;40.928;14.480;2022-12-29T07:09:08;18.33;;;10.25;;
63688;SDS011;54895;40.928;14.480;2022-12-29T07:11:34;18.33;;;8.75;;
63688;SDS011;54895;40.928;14.480;2022-12-29T07:14:00;16.98;;;8.23;;
63688;SDS011;54895;40.928;14.480;2022-12-29T07:16:26;15.18;;;9.20;;
63688;SDS011;54895;40.928;14.480;2022-12-29T07:18:55;14.73;;;8.15;;
63688;SDS011;54895;40.928;14.480;2022-12-29T07:21:21;15.85;;;8.75;;
63688;SDS011;54895;40.928;14.480;2022-12-29T07:23:47;14.63;;;8.60;;
63688;SDS011;54895;40.928;14.480;2022-12-29T07:26:13;14.02;;;9.57;;
63688;SDS011;54895;40.928;14.480;2022-12-29T07:28:40;17.38;;;9.45;;
63688;SDS011;54895;40.928;14.480;2022-12-29T07:31:12;16.80;;;9.88;;
63688;SDS011;54895;40.928;14.480;2022-12-29T07:36:38;19.38;;;11.15;;
63688;SDS011;54895;40.928;14.480;2022-12-29T07:39:06;17.13;;;10.10;;
63688;SDS011;54895;40.928;14.480;2022-12-29T07:41:33;16.67;;;9.95;;
63688;SDS011;54895;40.928;14.480;2022-12-29T07:44:02;17.58;;;9.23;;
63688;SDS011;54895;40.928;14.480;2022-12-29T07:46:44;13.87;;;8.27;;
63688;SDS011;54895;40.928;14.480;2022-12-29T07:49:12;14.35;;;8.23;;
63688;SDS011;54895;40.928;14.480;2022-12-29T07:51:39;19.00;;;9.68;;
63688;SDS011;54895;40.928;14.480;2022-12-29T07:54:05;24.25;;;12.65;;
63688;SDS011;54895;40.928;14.480;2022-12-29T07:56:32;24.58;;;12.90;;
63688;SDS011;54895;40.928;14.480;2022-12-29T07:58:58;23.10;;;11.32;;
63688;SDS011;54895;40.928;14.480;2022-12-29T08:01:25;21.65;;;11.50;;
63688;SDS011;54895;40.928;14.480;2022-12-29T08:03:51;23.25;;;12.00;;
63688;SDS011;54895;40.928;14.480;2022-12-29T08:06:18;23.42;;;11.65;;
63688;SDS011;54895;40.928;14.480;2022-12-29T08:08:46;19.77;;;12.90;;
63688;SDS011;54895;40.928;14.480;2022-12-29T08:11:13;27.27;;;13.85;;
63688;SDS011;54895;40.928;14.480;2022-12-29T08:13:39;31.75;;;15.73;;
63688;SDS011;54895;40.928;14.480;2022-12-29T08:16:06;23.58;;;14.25;;
63688;SDS011;54895;40.928;14.480;2022-12-29T08:18:33;23.60;;;15.35;;
63688;SDS011;54895;40.928;14.480;2022-12-29T08:21:03;26.15;;;16.33;;
63688;SDS011;54895;40.928;14.480;2022-12-29T08:23:30;30.70;;;16.35;;
63688;SDS011;54895;40.928;14.480;2022-12-29T08:26:00;27.77;;;17.05;;
63688;SDS011;54895;40.928;14.480;2022-12-29T08:28:28;31.60;;;18.63;;
63688;SDS011;54895;40.928;14.480;2022-12-29T08:30:57;29.58;;;18.38;;
63688;SDS011;54895;40.928;14.480;2022-12-29T08:36:54;30.02;;;19.63;;
63688;SDS011;54895;40.928;14.480;2022-12-29T08:39:20;30.10;;;19.15;;
63688;SDS011;54895;40.928;14.480;2022-12-29T08:41:46;25.67;;;17.83;;
63688;SDS011;54895;40.928;14.480;2022-12-29T08:44:12;26.30;;;18.50;;
63688;SDS011;54895;40.928;14.480;2022-12-29T08:46:38;30.75;;;18.60;;
63688;SDS011;54895;40.928;14.480;2022-12-29T08:49:04;26.63;;;17.65;;
63688;SDS011;54895;40.928;14.480;2022-12-29T08:51:30;27.40;;;17.70;;
63688;SDS011;54895;40.928;14.480;2022-12-29T08:53:56;28.23;;;18.67;;
63688;SDS011;54895;40.928;14.480;2022-12-29T08:56:22;26.23;;;17.33;;
63688;SDS011;54895;40.928;14.480;2022-12-29T08:58:53;26.02;;;15.93;;
63688;SDS011;54895;40.928;14.480;2022-12-29T09:01:21;29.23;;;17.23;;
63688;SDS011;54895;40.928;14.480;2022-12-29T09:03:47;25.10;;;16.83;;
63688;SDS011;54895;40.928;14.480;2022-12-29T09:06:13;23.65;;;15.95;;
63688;SDS011;54895;40.928;14.480;2022-12-29T09:08:39;20.73;;;12.77;;
63688;SDS011;54895;40.928;14.480;2022-12-29T09:11:16;22.30;;;12.93;;
63688;SDS011;54895;40.928;14.480;2022-12-29T09:13:42;18.98;;;11.48;;
63688;SDS011;54895;40.928;14.480;2022-12-29T09:16:08;16.77;;;11.15;;
63688;SDS011;54895;40.928;14.480;2022-12-29T09:18:34;18.27;;;11.50;;
63688;SDS011;54895;40.928;14.480;2022-12-29T09:21:01;21.15;;;12.27;;
63688;SDS011;54895;40.928;14.480;2022-12-29T09:23:28;14.85;;;10.55;;
63688;SDS011;54895;40.928;14.480;2022-12-29T09:25:54;17.55;;;11.10;;
63688;SDS011;54895;40.928;14.480;2022-12-29T09:28:20;19.52;;;10.13;;
63688;SDS011;54895;40.928;14.480;2022-12-29T09:30:47;22.13;;;10.98;;
63688;SDS011;54895;40.928;14.480;2022-12-29T09:37:04;19.30;;;10.40;;
63688;SDS011;54895;40.928;14.480;2022-12-29T09:39:30;16.90;;;10.98;;
63688;SDS011;54895;40.928;14.480;2022-12-29T09:44:26;17.30;;;8.73;;
63688;SDS011;54895;40.928;14.480;2022-12-29T09:46:55;11.60;;;7.90;;
63688;SDS011;54895;40.928;14.480;2022-12-29T09:51:54;8.77;;;4.95;;
63688;SDS011;54895;40.928;14.480;2022-12-29T09:57:00;9.35;;;5.22;;
63688;SDS011;54895;40.928;14.480;2022-12-29T09:59:35;9.57;;;5.85;;
63688;SDS011;54895;40.928;14.480;2022-12-29T10:02:12;9.98;;;5.30;;
63688;SDS011;54895;40.928;14.480;2022-12-29T10:04:42;10.13;;;5.28;;
63688;SDS011;54895;40.928;14.480;2022-12-29T10:07:16;11.23;;;5.70;;
63688;SDS011;54895;40.928;14.480;2022-12-29T10:12:16;12.40;;;5.90;;
63688;SDS011;54895;40.928;14.480;2022-12-29T10:25:44;13.30;;;6.22;;
63688;SDS011;54895;40.928;14.480;2022-12-29T10:28:17;11.48;;;6.25;;
63688;SDS011;54895;40.928;14.480;2022-12-29T10:30:46;13.27;;;6.35;;
63688;SDS011;54895;40.928;14.480;2022-12-29T10:36:54;12.73;;;6.70;;
63688;SDS011;54895;40.928;14.480;2022-12-29T10:41:57;9.27;;;5.32;;
63688;SDS011;54895;40.928;14.480;2022-12-29T10:44:28;11.35;;;6.18;;
63688;SDS011;54895;40.928;14.480;2022-12-29T10:46:59;15.20;;;6.80;;
63688;SDS011;54895;40.928;14.480;2022-12-29T10:49:27;13.80;;;6.97;;
63688;SDS011;54895;40.928;14.480;2022-12-29T10:51:54;14.68;;;6.93;;
63688;SDS011;54895;40.928;14.480;2022-12-29T10:55:07;13.55;;;6.57;;
63688;SDS011;54895;40.928;14.480;2022-12-29T10:57:21;16.20;;;6.82;;
63688;SDS011;54895;40.928;14.480;2022-12-29T10:59:48;12.70;;;6.30;;
63688;SDS011;54895;40.928;14.480;2022-12-29T11:04:53;12.65;;;6.50;;
63688;SDS011;54895;40.928;14.480;2022-12-29T11:07:21;10.27;;;5.93;;
63688;SDS011;54895;40.928;14.480;2022-12-29T11:09:47;11.27;;;6.60;;
63688;SDS011;54895;40.928;14.480;2022-12-29T11:12:22;10.60;;;5.95;;
63688;SDS011;54895;40.928;14.480;2022-12-29T11:17:43;9.07;;;4.18;;
63688;SDS011;54895;40.928;14.480;2022-12-29T11:20:42;7.20;;;4.30;;
63688;SDS011;54895;40.928;14.480;2022-12-29T11:23:03;11.25;;;5.00;;
63688;SDS011;54895;40.928;14.480;2022-12-29T11:25:30;10.50;;;5.20;;
63688;SDS011;54895;40.928;14.480;2022-12-29T11:27:57;9.98;;;4.68;;
63688;SDS011;54895;40.928;14.480;2022-12-29T11:30:25;10.65;;;4.78;;
63688;SDS011;54895;40.928;14.480;2022-12-29T11:36:47;8.52;;;3.35;;
63688;SDS011;54895;40.928;14.480;2022-12-29T11:39:23;7.63;;;2.53;;
63688;SDS011;54895;40.928;14.480;2022-12-29T11:41:52;5.65;;;1.88;;
63688;SDS011;54895;40.928;14.480;2022-12-29T11:44:20;4.60;;;2.17;;
63688;SDS011;54895;40.928;14.480;2022-12-29T11:46:47;4.78;;;1.33;;
63688;SDS011;54895;40.928;14.480;2022-12-29T11:49:19;6.90;;;1.92;;
63688;SDS011;54895;40.928;14.480;2022-12-29T11:51:46;5.57;;;1.80;;
63688;SDS011;54895;40.928;14.480;2022-12-29T11:54:16;2.38;;;1.45;;
63688;SDS011;54895;40.928;14.480;2022-12-29T11:56:44;6.70;;;2.05;;
63688;SDS011;54895;40.928;14.480;2022-12-29T12:01:56;4.57;;;1.75;;
63688;SDS011;54895;40.928;14.480;2022-12-29T12:04:24;4.30;;;1.83;;
63688;SDS011;54895;40.928;14.480;2022-12-29T12:09:22;6.47;;;2.17;;
63688;SDS011;54895;40.928;14.480;2022-12-29T12:11:51;2.97;;;1.70;;
63688;SDS011;54895;40.928;14.480;2022-12-29T12:14:21;4.68;;;2.15;;
63688;SDS011;54895;40.928;14.480;2022-12-29T12:19:41;4.40;;;2.05;;
63688;SDS011;54895;40.928;14.480;2022-12-29T12:24:47;4.53;;;2.30;;
63688;SDS011;54895;40.928;14.480;2022-12-29T12:32:43;5.20;;;2.38;;
63688;SDS011;54895;40.928;14.480;2022-12-29T12:41:24;3.92;;;2.40;;
63688;SDS011;54895;40.928;14.480;2022-12-29T12:51:44;5.53;;;2.75;;
63688;SDS011;54895;40.928;14.480;2022-12-29T12:56:46;4.10;;;2.55;;
63688;SDS011;54895;40.928;14.480;2022-12-29T12:59:32;6.68;;;2.38;;
63688;SDS011;54895;40.928;14.480;2022-12-29T13:02:11;7.32;;;2.70;;
63688;SDS011;54895;40.928;14.480;2022-12-29T13:20:02;7.50;;;2.60;;
63688;SDS011;54895;40.928;14.480;2022-12-29T13:25:37;3.30;;;1.80;;
63688;SDS011;54895;40.928;14.480;2022-12-29T13:37:02;3.15;;;1.95;;
63688;SDS011;54895;40.928;14.480;2022-12-29T13:39:39;4.63;;;1.80;;
63688;SDS011;54895;40.928;14.480;2022-12-29T13:42:06;10.20;;;2.40;;
63688;SDS011;54895;40.928;14.480;2022-12-29T13:44:43;5.50;;;2.08;;
63688;SDS011;54895;40.928;14.480;2022-12-29T13:47:20;3.55;;;1.83;;
63688;SDS011;54895;40.928;14.480;2022-12-29T13:49:50;5.40;;;1.73;;
63688;SDS011;54895;40.928;14.480;2022-12-29T13:52:27;3.47;;;1.60;;
63688;SDS011;54895;40.928;14.480;2022-12-29T13:54:57;7.85;;;2.03;;
63688;SDS011;54895;40.928;14.480;2022-12-29T14:07:46;9.98;;;2.40;;
63688;SDS011;54895;40.928;14.480;2022-12-29T14:15:32;6.53;;;2.28;;
63688;SDS011;54895;40.928;14.480;2022-12-29T14:18:00;3.88;;;1.80;;
63688;SDS011;54895;40.928;14.480;2022-12-29T14:20:27;6.90;;;2.38;;
63688;SDS011;54895;40.928;14.480;2022-12-29T14:28:20;3.88;;;2.05;;
63688;SDS011;54895;40.928;14.480;2022-12-29T14:30:52;4.28;;;1.80;;
63688;SDS011;54895;40.928;14.480;2022-12-29T14:37:23;4.47;;;1.77;;
63688;SDS011;54895;40.928;14.480;2022-12-29T14:39:49;4.70;;;1.92;;
63688;SDS011;54895;40.928;14.480;2022-12-29T14:42:27;7.38;;;2.25;;
63688;SDS011;54895;40.928;14.480;2022-12-29T14:44:58;4.88;;;1.92;;
63688;SDS011;54895;40.928;14.480;2022-12-29T14:49:51;4.50;;;2.13;;
63688;SDS011;54895;40.928;14.480;2022-12-29T14:54:45;3.75;;;1.65;;
63688;SDS011;54895;40.928;14.480;2022-12-29T14:57:18;5.63;;;1.92;;
63688;SDS011;54895;40.928;14.480;2022-12-29T14:59:45;5.00;;;1.70;;
63688;SDS011;54895;40.928;14.480;2022-12-29T15:02:13;4.53;;;1.88;;
63688;SDS011;54895;40.928;14.480;2022-12-29T15:04:41;4.10;;;2.00;;
63688;SDS011;54895;40.928;14.480;2022-12-29T15:07:07;6.90;;;1.70;;
63688;SDS011;54895;40.928;14.480;2022-12-29T15:14:48;4.72;;;1.90;;
63688;SDS011;54895;40.928;14.480;2022-12-29T15:17:28;5.63;;;1.92;;
63688;SDS011;54895;40.928;14.480;2022-12-29T15:19:55;4.45;;;1.70;;
63688;SDS011;54895;40.928;14.480;2022-12-29T15:22:22;7.07;;;2.15;;
63688;SDS011;54895;40.928;14.480;2022-12-29T15:24:50;6.70;;;2.00;;
63688;SDS011;54895;40.928;14.480;2022-12-29T15:27:19;7.32;;;1.73;;
63688;SDS011;54895;40.928;14.480;2022-12-29T15:29:46;7.10;;;2.22;;
63688;SDS011;54895;40.928;14.480;2022-12-29T15:34:45;18.52;;;3.10;;
63688;SDS011;54895;40.928;14.480;2022-12-29T15:37:25;6.88;;;3.35;;
63688;SDS011;54895;40.928;14.480;2022-12-29T15:39:52;6.32;;;2.30;;
63688;SDS011;54895;40.928;14.480;2022-12-29T15:44:50;7.20;;;3.15;;
63688;SDS011;54895;40.928;14.480;2022-12-29T15:47:17;8.82;;;3.22;;
63688;SDS011;54895;40.928;14.480;2022-12-29T15:49:44;8.02;;;3.42;;
63688;SDS011;54895;40.928;14.480;2022-12-29T15:52:12;8.57;;;2.90;;
63688;SDS011;54895;40.928;14.480;2022-12-29T15:54:42;7.57;;;3.58;;
63688;SDS011;54895;40.928;14.480;2022-12-29T15:57:27;11.02;;;3.70;;
63688;SDS011;54895;40.928;14.480;2022-12-29T15:59:56;11.77;;;4.22;;
63688;SDS011;54895;40.928;14.480;2022-12-29T16:02:22;8.85;;;4.15;;
63688;SDS011;54895;40.928;14.480;2022-12-29T16:04:49;8.85;;;4.65;;
63688;SDS011;54895;40.928;14.480;2022-12-29T16:07:26;11.93;;;6.13;;
63688;SDS011;54895;40.928;14.480;2022-12-29T16:09:54;11.90;;;5.63;;
63688;SDS011;54895;40.928;14.480;2022-12-29T16:12:21;9.32;;;4.65;;
63688;SDS011;54895;40.928;14.480;2022-12-29T16:14:50;17.90;;;8.00;;
63688;SDS011;54895;40.928;14.480;2022-12-29T16:17:17;12.65;;;7.82;;
63688;SDS011;54895;40.928;14.480;2022-12-29T16:19:56;12.90;;;7.20;;
63688;SDS011;54895;40.928;14.480;2022-12-29T16:22:28;16.20;;;6.82;;
63688;SDS011;54895;40.928;14.480;2022-12-29T16:24:55;11.25;;;5.93;;
63688;SDS011;54895;40.928;14.480;2022-12-29T16:27:23;9.57;;;5.18;;
63688;SDS011;54895;40.928;14.480;2022-12-29T16:29:54;10.00;;;4.35;;
63688;SDS011;54895;40.928;14.480;2022-12-29T16:32:28;9.95;;;4.57;;
63688;SDS011;54895;40.928;14.480;2022-12-29T16:38:47;12.43;;;4.55;;
63688;SDS011;54895;40.928;14.480;2022-12-29T16:49:16;12.82;;;7.07;;
63688;SDS011;54895;40.928;14.480;2022-12-29T16:51:43;20.60;;;10.68;;
63688;SDS011;54895;40.928;14.480;2022-12-29T16:54:19;18.15;;;7.80;;
63688;SDS011;54895;40.928;14.480;2022-12-29T16:56:46;26.83;;;7.85;;
63688;SDS011;54895;40.928;14.480;2022-12-29T17:02:13;20.25;;;8.48;;
63688;SDS011;54895;40.928;14.480;2022-12-29T17:04:40;18.92;;;8.82;;
63688;SDS011;54895;40.928;14.480;2022-12-29T17:07:16;11.82;;;7.35;;
63688;SDS011;54895;40.928;14.480;2022-12-29T17:09:43;13.40;;;5.13;;
63688;SDS011;54895;40.928;14.480;2022-12-29T17:12:10;17.65;;;6.75;;
63688;SDS011;54895;40.928;14.480;2022-12-29T17:14:40;23.02;;;11.40;;
63688;SDS011;54895;40.928;14.480;2022-12-29T17:17:12;29.13;;;19.38;;
63688;SDS011;54895;40.928;14.480;2022-12-29T17:19:38;30.10;;;17.45;;
63688;SDS011;54895;40.928;14.480;2022-12-29T17:22:24;29.75;;;17.05;;
63688;SDS011;54895;40.928;14.480;2022-12-29T17:24:54;26.10;;;14.60;;
63688;SDS011;54895;40.928;14.480;2022-12-29T17:27:26;27.15;;;15.35;;
63688;SDS011;54895;40.928;14.480;2022-12-29T17:29:54;22.65;;;13.20;;
63688;SDS011;54895;40.928;14.480;2022-12-29T17:32:24;23.55;;;14.40;;
63688;SDS011;54895;40.928;14.480;2022-12-29T17:34:52;27.27;;;15.50;;
63688;SDS011;54895;40.928;14.480;2022-12-29T17:39:54;26.08;;;14.55;;
63688;SDS011;54895;40.928;14.480;2022-12-29T17:42:20;24.80;;;12.23;;
63688;SDS011;54895;40.928;14.480;2022-12-29T17:44:49;27.90;;;14.73;;
63688;SDS011;54895;40.928;14.480;2022-12-29T17:47:18;33.05;;;19.75;;
63688;SDS011;54895;40.928;14.480;2022-12-29T17:49:44;33.50;;;19.02;;
63688;SDS011;54895;40.928;14.480;2022-12-29T17:52:11;42.65;;;24.33;;
63688;SDS011;54895;40.928;14.480;2022-12-29T17:54:40;41.28;;;23.83;;
63688;SDS011;54895;40.928;14.480;2022-12-29T17:57:09;52.22;;;33.33;;
63688;SDS011;54895;40.928;14.480;2022-12-29T17:59:38;51.42;;;32.85;;
63688;SDS011;54895;40.928;14.480;2022-12-29T18:02:09;50.92;;;31.40;;
63688;SDS011;54895;40.928;14.480;2022-12-29T18:04:43;55.15;;;33.33;;
63688;SDS011;54895;40.928;14.480;2022-12-29T18:07:09;50.42;;;31.33;;